createdAt,value
2023-03-04T00:01:24.370Z,73.08
2023-03-04T00:03:35.404Z,72.96
2023-03-04T00:05:40.238Z,73.30
2023-03-04T00:07:44.882Z,73.36
2023-03-04T00:09:49.998Z,73.30
2023-03-04T00:11:57.738Z,72.99
2023-03-04T00:14:02.494Z,73.05
2023-03-04T00:16:07.788Z,73.28
2023-03-04T00:18:18.666Z,72.78
2023-03-04T00:20:23.361Z,73.21
2023-03-04T00:22:28.141Z,73.33
2023-03-04T00:24:32.911Z,73.75
2023-03-04T00:26:46.070Z,73.75
2023-03-04T00:28:53.067Z,73.33
2023-03-04T00:30:57.965Z,73.31
2023-03-04T00:33:02.672Z,73.43
2023-03-04T00:35:08.303Z,73.41
2023-03-04T00:37:12.999Z,73.61
2023-03-04T00:39:18.476Z,73.27
2023-03-04T00:41:23.327Z,73.39
2023-03-04T00:43:28.112Z,73.75
2023-03-04T00:45:35.491Z,73.46
2023-03-04T00:47:40.374Z,73.61
2023-03-04T00:49:46.065Z,73.85
2023-03-04T00:51:50.842Z,73.93
2023-03-04T00:53:55.635Z,73.83
2023-03-04T00:56:00.621Z,73.88
2023-03-04T00:58:05.776Z,73.90
2023-03-04T01:00:12.825Z,74.04
2023-03-04T01:02:20.243Z,73.90
2023-03-04T01:04:25.114Z,74.24
2023-03-04T01:06:30.397Z,74.46
2023-03-04T01:08:35.116Z,74.57
2023-03-04T01:10:39.904Z,74.41
2023-03-04T01:12:45.848Z,74.40
2023-03-04T01:14:50.534Z,73.41
2023-03-04T01:16:55.693Z,73.38
2023-03-04T01:19:02.989Z,73.21
2023-03-04T01:21:08.480Z,72.60
2023-03-04T01:23:13.315Z,72.52
2023-03-04T01:25:18.238Z,72.92
2023-03-04T01:27:23.023Z,72.52
2023-03-04T01:29:30.184Z,72.16
2023-03-04T01:31:34.887Z,72.31
2023-03-04T01:33:39.671Z,71.80
2023-03-04T01:35:47.092Z,71.90
2023-03-04T01:37:51.731Z,72.48
2023-03-04T01:39:56.449Z,72.11
2023-03-04T01:42:01.632Z,71.97
2023-03-04T01:44:06.396Z,72.13
2023-03-04T01:46:15.716Z,72.23
2023-03-04T01:48:24.009Z,71.83
2023-03-04T01:50:33.665Z,72.09
2023-03-04T01:52:43.859Z,72.10
2023-03-04T01:54:51.742Z,72.31
2023-03-04T01:56:57.586Z,72.51
2023-03-04T01:59:17.322Z,72.76
2023-03-04T02:01:21.977Z,72.96
2023-03-04T02:03:27.894Z,72.68
2023-03-04T02:05:33.657Z,73.15
2023-03-04T02:07:41.299Z,73.02
2023-03-04T02:09:46.396Z,73.05
2023-03-04T02:11:52.301Z,73.02
2023-03-04T02:13:57.079Z,73.41
2023-03-04T02:16:01.843Z,73.62
2023-03-04T02:18:16.679Z,73.96
2023-03-04T02:20:34.018Z,73.81
2023-03-04T02:22:46.119Z,73.29
2023-03-04T02:24:55.501Z,73.22
2023-03-04T02:27:02.801Z,72.99
2023-03-04T02:29:07.965Z,73.48
2023-03-04T02:31:24.712Z,73.41
2023-03-04T02:33:29.754Z,73.33
2023-03-04T02:35:34.916Z,73.28
2023-03-04T02:37:42.585Z,73.15
2023-03-04T02:39:49.800Z,73.49
2023-03-04T02:41:59.420Z,73.27
2023-03-04T02:44:07.010Z,73.03
2023-03-04T02:46:18.223Z,72.99
2023-03-04T02:48:25.163Z,72.61
2023-03-04T02:50:32.767Z,72.97
2023-03-04T02:52:37.446Z,73.11
2023-03-04T02:54:42.403Z,72.93
2023-03-04T02:56:50.984Z,73.21
2023-03-04T02:58:57.722Z,72.66
2023-03-04T03:01:05.111Z,72.98
2023-03-04T03:03:10.272Z,72.51
2023-03-04T03:05:16.064Z,72.70
2023-03-04T03:07:20.802Z,72.48
2023-03-04T03:09:25.820Z,72.84
2023-03-04T03:11:30.681Z,73.24
2023-03-04T03:13:35.574Z,73.13
2023-03-04T03:15:42.595Z,73.21
2023-03-04T03:17:50.081Z,73.34
2023-03-04T03:19:55.158Z,73.69
2023-03-04T03:21:59.766Z,73.87
2023-03-04T03:24:04.479Z,73.99
2023-03-04T03:26:09.169Z,73.51
2023-03-04T03:28:14.381Z,73.40
2023-03-04T03:30:19.404Z,73.67
2023-03-04T03:32:24.216Z,73.59
2023-03-04T03:34:31.489Z,73.45
2023-03-04T03:36:36.278Z,73.35
2023-03-04T03:38:41.432Z,72.82
2023-03-04T03:40:46.118Z,72.49
2023-03-04T03:42:50.752Z,72.99
2023-03-04T03:44:56.204Z,72.80
2023-03-04T03:47:01.002Z,72.97
2023-03-04T03:49:05.669Z,73.31
2023-03-04T03:51:13.022Z,73.14
2023-03-04T03:53:17.714Z,72.85
2023-03-04T03:55:22.600Z,72.91
2023-03-04T03:57:27.432Z,73.39
2023-03-04T03:59:33.622Z,73.09
2023-03-04T04:01:38.361Z,72.96
2023-03-04T04:03:45.998Z,73.61
2023-03-04T04:05:50.655Z,73.44
2023-03-04T04:08:00.288Z,73.60
2023-03-04T04:10:05.158Z,73.27
2023-03-04T04:12:11.123Z,73.35
2023-03-04T04:14:16.683Z,72.78
2023-03-04T04:16:21.422Z,73.22
2023-03-04T04:18:26.701Z,72.72
2023-03-04T04:20:31.432Z,72.86
2023-03-04T04:22:36.287Z,73.35
2023-03-04T04:24:45.282Z,73.68
2023-03-04T04:26:50.114Z,73.80
2023-03-04T04:28:54.840Z,74.31
2023-03-04T04:30:59.628Z,74.12
2023-03-04T04:33:05.141Z,74.09
2023-03-04T04:35:11.579Z,74.80
2023-03-04T04:37:16.189Z,74.63
2023-03-04T04:39:21.182Z,74.69
2023-03-04T04:41:31.896Z,74.85
2023-03-04T04:43:36.646Z,73.88
2023-03-04T04:45:41.415Z,74.39
2023-03-04T04:47:46.397Z,74.63
2023-03-04T04:49:52.116Z,73.93
2023-03-04T04:52:13.531Z,73.46
2023-03-04T04:54:18.780Z,73.27
2023-03-04T04:56:26.512Z,72.90
2023-03-04T04:58:34.029Z,72.88
2023-03-04T05:00:38.747Z,72.79
2023-03-04T05:02:43.716Z,72.83
2023-03-04T05:04:49.471Z,73.19
2023-03-04T05:06:54.166Z,72.99
2023-03-04T05:08:58.564Z,73.49
2023-03-04T05:11:03.805Z,73.47
2023-03-04T05:13:08.421Z,73.65
2023-03-04T05:15:17.177Z,74.08
2023-03-04T05:17:21.981Z,73.82
2023-03-04T05:19:26.701Z,74.38
2023-03-04T05:21:31.434Z,74.39
2023-03-04T05:23:38.948Z,74.80
2023-03-04T05:25:43.812Z,75.00
2023-03-04T05:27:48.739Z,75.40
2023-03-04T05:29:54.278Z,75.40
2023-03-04T05:32:01.629Z,75.80
2023-03-04T05:34:06.409Z,76.46
2023-03-04T05:36:16.260Z,76.87
2023-03-04T05:38:22.697Z,76.99
2023-03-04T05:40:27.368Z,77.26
2023-03-04T05:42:32.201Z,77.12
2023-03-04T05:44:36.927Z,77.65
2023-03-04T05:46:41.603Z,77.47
2023-03-04T05:48:49.045Z,77.55
2023-03-04T05:50:57.104Z,77.87
2023-03-04T05:53:02.043Z,77.64
2023-03-04T05:55:07.375Z,78.17
2023-03-04T05:57:12.120Z,77.96
2023-03-04T05:59:20.875Z,77.91
2023-03-04T06:01:25.736Z,77.80
2023-03-04T06:03:30.530Z,77.30
2023-03-04T06:05:37.815Z,77.54
2023-03-04T06:07:43.606Z,77.50
2023-03-04T06:09:48.319Z,77.60
2023-03-04T06:11:53.269Z,77.70
2023-03-04T06:13:58.173Z,77.74
2023-03-04T06:16:05.159Z,77.49
2023-03-04T06:18:11.882Z,77.79
2023-03-04T06:20:16.651Z,77.96
2023-03-04T06:22:23.950Z,78.16
2023-03-04T06:24:28.744Z,78.63
2023-03-04T06:26:33.345Z,79.13
2023-03-04T06:28:38.127Z,79.16
2023-03-04T06:30:42.853Z,79.36
2023-03-04T06:32:48.224Z,79.85
2023-03-04T06:34:53.132Z,80.48
2023-03-04T06:36:57.742Z,80.50
2023-03-04T06:39:05.269Z,80.89
2023-03-04T06:41:11.314Z,81.04
2023-03-04T06:43:16.095Z,81.44
2023-03-04T06:45:20.977Z,81.53
2023-03-04T06:47:26.020Z,81.42
2023-03-04T06:49:30.769Z,81.68
2023-03-04T06:51:35.529Z,81.97
2023-03-04T06:53:41.413Z,81.87
2023-03-04T06:55:49.715Z,82.26
2023-03-04T06:57:54.586Z,82.04
2023-03-04T06:59:59.241Z,82.35
2023-03-04T07:02:04.077Z,82.21
2023-03-04T07:04:09.113Z,81.98
2023-03-04T07:06:14.979Z,82.22
2023-03-04T07:08:21.725Z,81.51
2023-03-04T07:10:26.875Z,81.04
2023-03-04T07:12:34.160Z,80.27
2023-03-04T07:14:38.780Z,80.39
2023-03-04T07:16:43.712Z,79.54
2023-03-04T07:18:51.916Z,79.08
2023-03-04T07:20:56.939Z,79.33
2023-03-04T07:23:01.609Z,79.18
2023-03-04T07:25:07.109Z,78.85
2023-03-04T07:27:11.849Z,79.49
2023-03-04T07:29:19.390Z,81.14
2023-03-04T07:31:27.684Z,82.18
2023-03-04T07:33:32.379Z,83.25
2023-03-04T07:35:37.541Z,83.61
2023-03-04T07:37:42.788Z,83.96
2023-03-04T07:39:47.616Z,84.03
2023-03-04T07:41:52.349Z,83.81
2023-03-04T07:43:58.658Z,83.61
2023-03-04T07:46:06.084Z,84.55
2023-03-04T07:48:10.800Z,84.15
2023-03-04T07:50:17.884Z,83.95
2023-03-04T07:52:23.192Z,84.17
2023-03-04T07:54:27.839Z,84.15
2023-03-04T07:56:34.629Z,83.69
2023-03-04T07:58:39.644Z,83.48
2023-03-04T08:00:44.281Z,84.00
2023-03-04T08:02:52.514Z,84.44
2023-03-04T08:05:00.105Z,85.22
2023-03-04T08:07:04.889Z,84.66
2023-03-04T08:09:11.028Z,84.48
2023-03-04T08:11:17.958Z,84.37
2023-03-04T08:13:24.239Z,84.28
2023-03-04T08:15:33.034Z,83.71
2023-03-04T08:17:38.344Z,83.56
2023-03-04T08:19:47.071Z,83.88
2023-03-04T08:21:52.048Z,82.99
2023-03-04T08:23:57.774Z,83.01
2023-03-04T08:26:02.547Z,82.70
2023-03-04T08:28:07.704Z,82.30
2023-03-04T08:30:14.276Z,81.02
2023-03-04T08:32:19.137Z,81.17
2023-03-04T08:34:26.144Z,80.66
2023-03-04T08:36:33.461Z,79.76
2023-03-04T08:38:38.231Z,79.31
2023-03-04T08:40:42.896Z,78.51
2023-03-04T08:42:47.510Z,78.05
2023-03-04T08:44:52.215Z,78.21
2023-03-04T08:46:56.959Z,78.94
2023-03-04T08:49:01.593Z,81.07
2023-03-04T08:51:10.970Z,83.78
2023-03-04T08:53:19.126Z,84.76
2023-03-04T08:55:23.810Z,86.62
2023-03-04T08:57:28.600Z,87.50
2023-03-04T08:59:33.302Z,87.89
2023-03-04T09:01:38.100Z,88.45
2023-03-04T09:03:44.082Z,88.91
2023-03-04T09:05:49.828Z,88.77
2023-03-04T09:07:54.448Z,88.01
2023-03-04T09:10:01.680Z,87.10
2023-03-04T09:12:08.245Z,86.17
2023-03-04T09:14:14.263Z,85.12
2023-03-04T09:16:19.155Z,84.95
2023-03-04T09:18:25.494Z,84.17
2023-03-04T09:20:30.145Z,83.36
2023-03-04T09:22:35.100Z,82.78
2023-03-04T09:24:39.836Z,81.79
2023-03-04T09:26:47.028Z,82.21
2023-03-04T09:28:54.281Z,82.10
2023-03-04T09:30:59.022Z,81.62
2023-03-04T09:33:03.809Z,79.27
2023-03-04T09:35:10.307Z,78.76
2023-03-04T09:37:14.985Z,78.25
2023-03-04T09:39:19.656Z,80.26
2023-03-04T09:41:27.269Z,80.21
2023-03-04T09:43:36.088Z,80.45
2023-03-04T09:45:49.008Z,80.60
2023-03-04T09:47:57.156Z,80.06
2023-03-04T09:50:04.242Z,80.08
2023-03-04T09:52:20.517Z,79.25
2023-03-04T09:54:37.781Z,78.42
2023-03-04T09:56:45.401Z,79.12
2023-03-04T09:59:04.899Z,78.56
2023-03-04T10:01:15.521Z,79.60
2023-03-04T10:03:22.994Z,78.93
2023-03-04T10:05:30.557Z,80.74
2023-03-04T10:07:41.491Z,82.30
2023-03-04T10:09:52.577Z,82.59
2023-03-04T10:12:05.840Z,83.23
2023-03-04T10:14:36.714Z,83.28
2023-03-04T10:16:46.307Z,83.72
2023-03-04T10:18:55.691Z,83.84
2023-03-04T10:21:05.047Z,83.17
2023-03-04T10:23:17.575Z,83.75
2023-03-04T10:25:25.746Z,84.86
2023-03-04T10:27:31.321Z,86.23
2023-03-04T10:29:39.571Z,86.70
2023-03-04T10:31:44.255Z,86.16
2023-03-04T10:33:49.115Z,84.92
2023-03-04T10:35:58.881Z,83.32
2023-03-04T10:38:06.349Z,81.78
2023-03-04T10:40:22.015Z,80.54
2023-03-04T10:42:37.494Z,80.27
2023-03-04T10:44:53.972Z,78.76
2023-03-04T10:47:00.466Z,78.07
2023-03-04T10:49:06.417Z,77.70
2023-03-04T10:51:21.082Z,77.22
2023-03-04T10:53:36.221Z,76.31
2023-03-04T10:55:47.834Z,76.53
2023-03-04T10:57:57.440Z,76.17
2023-03-04T11:00:22.194Z,75.64
2023-03-04T11:02:30.143Z,75.40
2023-03-04T11:04:37.285Z,76.86
2023-03-04T11:06:44.016Z,77.00
2023-03-04T11:08:57.003Z,77.00
2023-03-04T11:11:01.941Z,75.90
2023-03-04T11:13:19.669Z,74.52
2023-03-04T11:15:31.213Z,73.62
2023-03-04T11:17:46.894Z,76.97
2023-03-04T11:19:55.726Z,80.64
2023-03-04T11:22:01.706Z,83.97
2023-03-04T11:24:25.751Z,85.17
2023-03-04T11:26:37.823Z,84.97
2023-03-04T11:28:48.113Z,83.63
2023-03-04T11:31:00.444Z,82.37
2023-03-04T11:33:15.341Z,82.31
2023-03-04T11:35:26.975Z,81.60
2023-03-04T11:37:35.860Z,80.97
2023-03-04T11:39:44.604Z,79.93
2023-03-04T11:41:56.093Z,79.45
2023-03-04T11:44:01.570Z,80.66
2023-03-04T11:46:30.153Z,80.23
2023-03-04T11:48:47.747Z,79.16
2023-03-04T11:50:56.658Z,78.71
2023-03-04T11:53:23.629Z,76.96
2023-03-04T11:55:39.357Z,77.04
2023-03-04T11:57:54.593Z,75.74
2023-03-04T12:00:14.846Z,76.50
2023-03-04T12:02:24.829Z,77.79
2023-03-04T12:04:43.607Z,79.82
2023-03-04T12:06:59.286Z,81.75
2023-03-04T12:09:18.170Z,83.28
2023-03-04T12:11:33.488Z,84.43
2023-03-04T12:13:50.426Z,84.93
2023-03-04T12:16:05.562Z,85.36
2023-03-04T12:18:29.739Z,87.28
2023-03-04T12:20:48.737Z,86.04
2023-03-04T12:22:59.262Z,87.04
2023-03-04T12:25:27.940Z,87.14
2023-03-04T12:27:40.039Z,87.13
2023-03-04T12:29:50.510Z,86.30
2023-03-04T12:32:04.062Z,85.64
2023-03-04T12:34:42.914Z,84.60
2023-03-04T12:36:54.950Z,84.63
2023-03-04T12:39:10.260Z,83.32
2023-03-04T12:41:31.219Z,84.40
2023-03-04T12:43:45.097Z,85.48
2023-03-04T12:45:58.210Z,86.23
2023-03-04T12:48:10.677Z,86.62
2023-03-04T12:50:39.289Z,87.01
2023-03-04T12:52:52.566Z,85.76
2023-03-04T12:55:00.735Z,85.63
2023-03-04T12:57:09.355Z,82.94
2023-03-04T12:59:18.717Z,82.17
2023-03-04T13:01:28.728Z,80.88
2023-03-04T13:03:41.575Z,78.49
2023-03-04T13:06:10.011Z,78.50
2023-03-04T13:08:28.108Z,77.15
2023-03-04T13:10:33.085Z,78.15
2023-03-04T13:12:51.395Z,78.69
2023-03-04T13:15:26.141Z,78.32
2023-03-04T13:17:43.945Z,78.09
2023-03-04T13:19:55.854Z,77.10
2023-03-04T13:22:03.116Z,75.37
2023-03-04T13:24:37.685Z,75.76
2023-03-04T13:26:42.948Z,75.23
2023-03-04T13:28:55.090Z,74.44
2023-03-04T13:31:20.777Z,74.52
2023-03-04T13:33:57.956Z,74.45
2023-03-04T13:36:09.017Z,74.04
2023-03-04T13:38:26.954Z,73.04
2023-03-04T13:40:39.919Z,72.04
2023-03-04T13:42:46.329Z,72.81
2023-03-04T13:45:02.608Z,72.76
2023-03-04T13:47:12.656Z,73.01
2023-03-04T13:49:24.949Z,74.14
2023-03-04T13:51:33.420Z,75.74
2023-03-04T13:53:50.092Z,75.98
2023-03-04T13:56:09.817Z,75.22
2023-03-04T13:58:23.501Z,75.26
2023-03-04T14:00:28.850Z,74.53
2023-03-04T14:02:37.573Z,73.97
2023-03-04T14:04:44.006Z,74.19
2023-03-04T14:06:49.656Z,73.58
2023-03-04T14:08:58.545Z,73.87
2023-03-04T14:11:03.342Z,74.13
2023-03-04T14:13:09.278Z,73.47
2023-03-04T14:15:25.077Z,72.98
2023-03-04T14:17:33.879Z,74.02
2023-03-04T14:19:48.153Z,73.42
2023-03-04T14:21:52.967Z,71.37
2023-03-04T14:24:09.623Z,71.63
2023-03-04T14:26:16.239Z,71.01
2023-03-04T14:28:23.512Z,70.80
2023-03-04T14:30:42.119Z,69.79
2023-03-04T14:32:48.813Z,69.90
2023-03-04T14:34:56.003Z,69.56
2023-03-04T14:37:01.631Z,70.04
2023-03-04T14:39:10.236Z,69.99
2023-03-04T14:41:21.193Z,69.70
2023-03-04T14:43:26.964Z,69.36
2023-03-04T14:45:32.699Z,68.82
2023-03-04T14:47:41.138Z,67.78
2023-03-04T14:49:46.346Z,68.61
2023-03-04T14:51:52.881Z,69.17
2023-03-04T14:53:58.473Z,70.19
2023-03-04T14:56:14.223Z,70.27
2023-03-04T14:58:25.102Z,69.77
2023-03-04T15:00:34.519Z,67.63
2023-03-04T15:02:46.672Z,67.09
2023-03-04T15:04:52.200Z,65.77
2023-03-04T15:06:57.340Z,66.14
2023-03-04T15:09:05.519Z,66.44
2023-03-04T15:11:25.333Z,66.89
2023-03-04T15:13:44.131Z,66.87
2023-03-04T15:15:50.060Z,66.81
2023-03-04T15:18:01.155Z,66.75
2023-03-04T15:20:28.410Z,67.13
2023-03-04T15:22:33.088Z,67.91
2023-03-04T15:24:37.828Z,68.52
2023-03-04T15:26:46.705Z,68.86
2023-03-04T15:28:53.271Z,68.89
2023-03-04T15:30:57.919Z,69.69
2023-03-04T15:33:03.756Z,70.01
2023-03-04T15:35:09.845Z,70.42
2023-03-04T15:37:22.913Z,71.41
2023-03-04T15:39:27.765Z,71.98
2023-03-04T15:41:32.426Z,72.70
2023-03-04T15:43:39.915Z,74.39
2023-03-04T15:45:45.275Z,75.31
2023-03-04T15:47:50.140Z,76.62
2023-03-04T15:49:54.851Z,76.25
2023-03-04T15:51:59.510Z,76.22
2023-03-04T15:54:04.822Z,76.03
2023-03-04T15:56:15.081Z,76.20
2023-03-04T15:58:19.804Z,76.02
2023-03-04T16:00:27.777Z,76.32
2023-03-04T16:02:33.115Z,76.26
2023-03-04T16:04:39.070Z,76.52
2023-03-04T16:06:45.369Z,76.82
2023-03-04T16:08:52.435Z,78.32
2023-03-04T16:10:57.365Z,79.14
2023-03-04T16:13:02.607Z,78.31
2023-03-04T16:15:18.804Z,77.69
2023-03-04T16:17:26.411Z,77.19
2023-03-04T16:19:31.189Z,76.78
2023-03-04T16:21:39.278Z,76.78
2023-03-04T16:23:54.600Z,76.25
2023-03-04T16:25:59.555Z,76.41
2023-03-04T16:28:05.253Z,76.67
2023-03-04T16:30:14.257Z,75.47
2023-03-04T16:32:27.642Z,75.73
2023-03-04T16:34:34.889Z,75.68
2023-03-04T16:36:39.788Z,75.39
2023-03-04T16:38:47.878Z,75.81
2023-03-04T16:40:52.497Z,75.49
2023-03-04T16:42:57.609Z,75.76
2023-03-04T16:45:02.256Z,76.60
2023-03-04T16:47:08.001Z,77.99
2023-03-04T16:49:13.064Z,77.90
2023-03-04T16:51:22.810Z,78.54
2023-03-04T16:53:34.430Z,78.84
2023-03-04T16:55:40.724Z,79.45
2023-03-04T16:57:45.543Z,78.92
2023-03-04T16:59:50.625Z,78.66
2023-03-04T17:01:59.212Z,78.25
2023-03-04T17:04:04.023Z,78.33
2023-03-04T17:06:09.543Z,78.28
2023-03-04T17:08:16.993Z,78.17
2023-03-04T17:10:23.258Z,78.75
2023-03-04T17:12:27.874Z,78.32
2023-03-04T17:14:32.605Z,77.29
2023-03-04T17:16:37.324Z,77.49
2023-03-04T17:18:42.110Z,77.18
2023-03-04T17:20:47.247Z,77.51
2023-03-04T17:22:52.314Z,77.69
2023-03-04T17:24:59.835Z,77.82
2023-03-04T17:27:04.455Z,78.19
2023-03-04T17:29:09.164Z,78.61
2023-03-04T17:31:15.443Z,78.88
2023-03-04T17:33:20.116Z,79.43
2023-03-04T17:35:27.061Z,79.37
2023-03-04T17:37:31.744Z,79.47
2023-03-04T17:39:36.507Z,79.76
2023-03-04T17:41:43.960Z,79.68
2023-03-04T17:43:50.557Z,80.05
2023-03-04T17:46:04.441Z,80.55
2023-03-04T17:48:14.961Z,80.82
2023-03-04T17:50:21.142Z,81.54
2023-03-04T17:52:25.973Z,82.04
2023-03-04T17:54:30.855Z,82.71
2023-03-04T17:56:36.420Z,83.38
2023-03-04T17:58:43.862Z,84.14
2023-03-04T18:00:49.491Z,84.21
2023-03-04T18:02:54.254Z,84.66
2023-03-04T18:04:59.076Z,84.90
2023-03-04T18:07:05.654Z,85.00
2023-03-04T18:09:10.376Z,85.54
2023-03-04T18:11:17.351Z,86.01
2023-03-04T18:13:22.288Z,87.20
2023-03-04T18:15:29.768Z,88.80
2023-03-04T18:17:34.493Z,88.94
2023-03-04T18:19:39.430Z,89.92
2023-03-04T18:21:44.423Z,90.13
2023-03-04T18:23:49.651Z,89.86
2023-03-04T18:25:54.323Z,89.79
2023-03-04T18:27:59.070Z,89.46
2023-03-04T18:30:05.838Z,88.63
2023-03-04T18:32:13.212Z,88.55
2023-03-04T18:34:17.954Z,88.08
2023-03-04T18:36:22.864Z,87.77
2023-03-04T18:38:27.618Z,87.33
2023-03-04T18:40:34.556Z,86.96
2023-03-04T18:42:44.244Z,86.54
2023-03-04T18:44:51.477Z,85.89
2023-03-04T18:46:59.393Z,85.94
2023-03-04T18:49:13.371Z,85.83
2023-03-04T18:51:18.094Z,85.02
2023-03-04T18:53:24.596Z,85.55
2023-03-04T18:55:29.600Z,84.15
2023-03-04T18:57:34.791Z,84.40
2023-03-04T18:59:43.199Z,82.52
2023-03-04T19:01:48.623Z,83.23
2023-03-04T19:03:54.569Z,83.17
2023-03-04T19:06:02.228Z,83.10
2023-03-04T19:08:07.746Z,82.97
2023-03-04T19:10:14.533Z,80.90
2023-03-04T19:12:22.376Z,79.79
2023-03-04T19:14:28.433Z,80.39
2023-03-04T19:16:33.219Z,78.94
2023-03-04T19:18:38.046Z,78.62
2023-03-04T19:20:43.521Z,79.07
2023-03-04T19:22:51.021Z,79.61
2023-03-04T19:24:55.712Z,80.39
2023-03-04T19:27:00.409Z,79.78
2023-03-04T19:29:05.233Z,80.21
2023-03-04T19:31:11.497Z,77.18
2023-03-04T19:33:16.361Z,75.36
2023-03-04T19:35:21.197Z,76.14
2023-03-04T19:37:25.892Z,75.27
2023-03-04T19:39:33.178Z,75.19
2023-03-04T19:41:38.557Z,74.91
2023-03-04T19:43:46.300Z,75.44
2023-03-04T19:45:56.904Z,75.28
2023-03-04T19:48:03.137Z,75.63
2023-03-04T19:50:13.420Z,76.20
2023-03-04T19:52:18.196Z,76.13
2023-03-04T19:54:25.224Z,76.59
2023-03-04T19:56:32.778Z,77.22
2023-03-04T19:58:37.698Z,78.24
2023-03-04T20:00:42.442Z,79.81
2023-03-04T20:02:49.117Z,80.01
2023-03-04T20:04:53.859Z,79.64
2023-03-04T20:07:01.200Z,80.92
2023-03-04T20:09:07.007Z,80.98
2023-03-04T20:11:15.211Z,81.58
2023-03-04T20:13:22.558Z,81.77
2023-03-04T20:15:32.243Z,81.31
2023-03-04T20:17:36.980Z,81.52
2023-03-04T20:19:41.884Z,81.61
2023-03-04T20:21:46.748Z,81.30
2023-03-04T20:23:51.506Z,81.84
2023-03-04T20:25:56.528Z,81.83
2023-03-04T20:28:01.871Z,82.07
2023-03-04T20:30:10.578Z,82.29
2023-03-04T20:32:15.272Z,81.97
2023-03-04T20:34:20.167Z,82.00
2023-03-04T20:36:26.826Z,82.02
2023-03-04T20:38:33.725Z,82.84
2023-03-04T20:40:40.568Z,82.75
2023-03-04T20:42:45.330Z,83.28
2023-03-04T20:44:50.074Z,83.46
2023-03-04T20:46:57.781Z,83.24
2023-03-04T20:49:04.440Z,83.14
2023-03-04T20:51:09.103Z,83.67
2023-03-04T20:53:13.928Z,83.48
2023-03-04T20:55:21.462Z,83.86
2023-03-04T20:57:26.648Z,83.57
2023-03-04T20:59:31.274Z,82.31
2023-03-04T21:01:36.093Z,81.54
2023-03-04T21:03:43.866Z,81.31
2023-03-04T21:05:48.665Z,81.40
2023-03-04T21:07:55.447Z,81.66
2023-03-04T21:10:00.461Z,81.57
2023-03-04T21:12:05.149Z,81.76
2023-03-04T21:14:11.353Z,81.74
2023-03-04T21:16:17.519Z,81.78
2023-03-04T21:18:22.303Z,81.76
2023-03-04T21:20:29.689Z,81.60
2023-03-04T21:22:34.268Z,81.76
2023-03-04T21:24:47.248Z,82.06
2023-03-04T21:26:52.289Z,82.31
2023-03-04T21:28:57.650Z,82.06
2023-03-04T21:31:02.887Z,82.19
2023-03-04T21:33:08.903Z,81.97
2023-03-04T21:35:19.460Z,81.81
2023-03-04T21:37:28.232Z,81.95
2023-03-04T21:39:33.447Z,81.93
2023-03-04T21:41:38.166Z,82.00
2023-03-04T21:43:42.877Z,82.05
2023-03-04T21:45:47.589Z,82.32
2023-03-04T21:47:52.497Z,82.12
2023-03-04T21:49:57.224Z,82.11
2023-03-04T21:52:03.750Z,82.18
2023-03-04T21:54:11.398Z,82.24
2023-03-04T21:56:16.368Z,82.38
2023-03-04T21:58:21.238Z,82.64
2023-03-04T22:00:26.382Z,82.40
2023-03-04T22:02:31.043Z,82.73
2023-03-04T22:04:35.882Z,83.02
2023-03-04T22:06:41.412Z,82.97
2023-03-04T22:08:46.350Z,82.91
2023-03-04T22:10:53.640Z,83.09
2023-03-04T22:12:58.525Z,83.00
2023-03-04T22:15:03.240Z,83.11
2023-03-04T22:17:08.098Z,83.32
2023-03-04T22:19:12.900Z,83.43
2023-03-04T22:21:21.342Z,83.48
2023-03-04T22:23:26.252Z,83.41
2023-03-04T22:25:31.172Z,83.44
2023-03-04T22:27:38.572Z,83.35
2023-03-04T22:29:43.094Z,83.63
2023-03-04T22:31:48.867Z,83.61
2023-03-04T22:33:53.665Z,83.51
2023-03-04T22:35:58.358Z,83.79
2023-03-04T22:38:03.044Z,84.02
2023-03-04T22:40:11.099Z,83.83
2023-03-04T22:42:16.173Z,83.81
2023-03-04T22:44:23.697Z,84.10
2023-03-04T22:46:30.621Z,83.95
2023-03-04T22:48:35.523Z,83.54
2023-03-04T22:50:40.297Z,83.50
2023-03-04T22:52:45.050Z,83.82
2023-03-04T22:54:50.390Z,83.62
2023-03-04T22:56:55.032Z,83.48
2023-03-04T22:58:59.736Z,83.82
2023-03-04T23:01:08.335Z,84.02
2023-03-04T23:03:13.000Z,84.05
2023-03-04T23:05:18.798Z,83.92
2023-03-04T23:07:23.709Z,84.01
2023-03-04T23:09:28.406Z,83.99
2023-03-04T23:11:35.474Z,84.20
2023-03-04T23:13:40.696Z,83.95
2023-03-04T23:15:48.075Z,84.01
2023-03-04T23:17:55.583Z,84.27
2023-03-04T23:20:01.290Z,84.39
2023-03-04T23:22:05.975Z,83.65
2023-03-04T23:24:11.926Z,83.56
2023-03-04T23:26:17.704Z,83.45
2023-03-04T23:28:22.466Z,83.54
2023-03-04T23:30:27.304Z,83.78
2023-03-04T23:32:32.055Z,84.17
2023-03-04T23:34:42.224Z,84.85
2023-03-04T23:36:46.975Z,84.50
2023-03-04T23:38:52.053Z,84.89
2023-03-04T23:40:56.678Z,84.64
2023-03-04T23:43:01.463Z,84.95
2023-03-04T23:45:06.455Z,85.21
2023-03-04T23:47:11.476Z,85.46
2023-03-04T23:49:18.001Z,85.49
2023-03-04T23:51:28.577Z,85.58
2023-03-04T23:53:34.510Z,85.61
2023-03-04T23:55:42.474Z,86.51
2023-03-04T23:57:47.789Z,86.75
2023-03-04T23:59:52.493Z,86.34
